Time;durP1;ratioP1;P1;durP2;ratioP2;P2;SDS_P1;SDS_P2;PMS_P1;PMS_P2;Temp;Humidity;BMP_temperature;BMP_pressure;BME280_temperature;BME280_humidity;BME280_pressure;Samples;Min_cycle;Max_cycle;Signal;HPM_P1;HPM_P2
2023/03/03 00:00:43;;;;;;;;;9.00;7.50;;;;;20.84;32.62;102144.50;5035327;28;46868;-73
2023/03/03 00:03:13;;;;;;;;;8.75;7.25;;;;;20.84;32.37;102146.34;5035381;28;45424;-73
2023/03/03 00:05:38;;;;;;;;;6.25;5.75;;;;;20.83;32.45;102150.81;5035536;28;45268;-73
2023/03/03 00:08:04;;;;;;;;;9.25;8.25;;;;;20.82;32.54;102143.81;5035463;28;45275;-73
2023/03/03 00:10:30;;;;;;;;;12.00;9.50;;;;;20.80;32.27;102148.44;5033734;28;48053;-73
2023/03/03 00:12:55;;;;;;;;;6.50;6.50;;;;;20.70;32.22;102129.09;5035227;28;45245;-74
2023/03/03 00:15:23;;;;;;;;;10.25;8.75;;;;;20.68;32.62;102131.03;5035259;28;45612;-74
2023/03/03 00:17:48;;;;;;;;;13.25;9.75;;;;;20.70;32.62;102123.78;5035273;28;45319;-73
2023/03/03 00:20:39;;;;;;;;;7.00;7.00;;;;;20.77;32.36;102142.56;5035312;28;46093;-74
2023/03/03 00:23:25;;;;;;;;;9.50;9.50;;;;;20.77;32.28;102153.16;5039018;28;45409;-73
2023/03/03 00:25:52;;;;;;;;;9.25;8.25;;;;;20.74;32.47;102147.16;5038918;28;45615;-73
2023/03/03 00:28:27;;;;;;;;;9.25;7.25;;;;;20.75;32.50;102155.94;5038847;28;45502;-73
2023/03/03 00:30:54;;;;;;;;;8.50;7.00;;;;;20.73;32.20;102148.16;5038506;28;46147;-73
2023/03/03 00:33:28;;;;;;;;;10.50;8.75;;;;;20.73;32.20;102152.63;5038549;28;45387;-73
2023/03/03 00:36:05;;;;;;;;;6.00;5.50;;;;;20.72;32.16;102143.00;5038195;28;45474;-73
2023/03/03 00:38:34;;;;;;;;;9.00;9.00;;;;;20.76;32.42;102152.34;5037385;28;45353;-74
2023/03/03 00:41:00;;;;;;;;;7.75;7.75;;;;;20.74;32.08;102149.81;5038455;28;46900;-74
2023/03/03 00:43:34;;;;;;;;;11.00;8.50;;;;;20.74;32.30;102149.81;5038441;28;45373;-73
2023/03/03 00:46:00;;;;;;;;;8.50;7.75;;;;;20.67;32.23;102143.41;5037997;28;45349;-74
2023/03/03 00:48:25;;;;;;;;;8.00;8.00;;;;;20.75;32.30;102150.66;5038459;28;45501;-74
2023/03/03 00:50:53;;;;;;;;;9.75;9.00;;;;;20.74;32.33;102155.09;5038226;28;46061;-72
2023/03/03 00:53:22;;;;;;;;;4.00;0.75;;;;;20.73;32.54;102155.25;5038052;28;45371;-73
2023/03/03 00:55:49;;;;;;;;;10.75;8.00;;;;;20.73;32.53;102161.38;5038464;28;45240;-74
2023/03/03 00:58:15;;;;;;;;;9.00;8.00;;;;;20.72;32.54;102164.16;5038285;28;45430;-74
2023/03/03 01:00:41;;;;;;;;;10.50;8.75;;;;;20.71;32.69;102160.66;5038140;28;46098;-73
2023/03/03 01:03:09;;;;;;;;;8.75;7.75;;;;;20.70;32.44;102159.00;5038205;28;45297;-74
2023/03/03 01:05:35;;;;;;;;;10.25;8.50;;;;;20.65;32.48;102155.94;5038471;28;45374;-74
2023/03/03 01:08:02;;;;;;;;;11.25;9.50;;;;;20.69;32.36;102159.13;5037882;28;45346;-74
2023/03/03 01:10:31;;;;;;;;;9.75;7.75;;;;;20.69;32.44;102161.78;5038021;28;47065;-74
2023/03/03 01:12:57;;;;;;;;;8.00;7.25;;;;;20.67;32.32;102159.28;5038000;28;45326;-74
2023/03/03 01:15:23;;;;;;;;;13.25;9.50;;;;;20.66;32.45;102160.25;5037868;28;45403;-74
2023/03/03 01:17:49;;;;;;;;;7.00;7.00;;;;;20.66;32.20;102159.44;5038055;28;45357;-74
2023/03/03 01:20:15;;;;;;;;;10.25;8.00;;;;;20.66;32.44;102151.50;5037849;28;46158;-74
2023/03/03 01:22:40;;;;;;;;;8.00;6.00;;;;;20.60;32.20;102159.03;5037571;28;45362;-74
2023/03/03 01:25:06;;;;;;;;;8.50;7.50;;;;;20.63;32.63;102157.91;5038071;28;45553;-74
2023/03/03 01:27:33;;;;;;;;;11.00;9.50;;;;;20.63;32.12;102158.72;5037875;28;45345;-74
2023/03/03 01:29:59;;;;;;;;;8.50;8.50;;;;;20.62;32.27;102151.78;5037620;28;46065;-74
2023/03/03 01:32:24;;;;;;;;;9.50;8.50;;;;;20.62;32.46;102148.28;5037573;28;45260;-73
2023/03/03 01:34:50;;;;;;;;;10.75;8.25;;;;;20.63;32.30;102149.97;5037236;28;45264;-74
2023/03/03 01:37:15;;;;;;;;;9.25;9.25;;;;;20.61;32.41;102146.59;5037235;28;45253;-73
2023/03/03 01:39:40;;;;;;;;;9.00;8.75;;;;;20.59;32.37;102143.28;5037429;28;45346;-73
2023/03/03 01:42:06;;;;;;;;;8.75;8.50;;;;;20.60;31.90;102150.25;5037673;28;45354;-73
2023/03/03 01:44:32;;;;;;;;;10.50;7.25;;;;;20.59;32.46;102152.03;5037782;28;45411;-74
2023/03/03 01:47:09;;;;;;;;;8.75;8.50;;;;;20.57;32.37;102147.88;5037735;28;45711;-73
2023/03/03 01:49:50;;;;;;;;;11.00;8.75;;;;;20.60;32.28;102148.44;5037566;28;46209;-73
2023/03/03 01:52:26;;;;;;;;;9.00;7.25;;;;;20.57;32.38;102139.94;5036897;28;45319;-73
2023/03/03 01:54:56;;;;;;;;;8.50;8.00;;;;;20.59;32.22;102148.56;5037485;28;47124;-73
2023/03/03 01:57:35;;;;;;;;;9.00;9.00;;;;;20.60;32.44;102143.16;5037334;28;45331;-73
2023/03/03 02:00:04;;;;;;;;;12.50;12.00;;;;;20.60;32.37;102143.16;5037175;28;47083;-73
2023/03/03 02:02:30;;;;;;;;;11.50;9.00;;;;;20.60;32.18;102148.44;5037151;28;45380;-74
2023/03/03 02:04:56;;;;;;;;;12.50;11.00;;;;;20.56;32.12;102131.16;5037028;28;45342;-73
2023/03/03 02:07:24;;;;;;;;;11.75;10.75;;;;;20.59;32.53;102136.19;5037120;28;45526;-72
2023/03/03 02:10:05;;;;;;;;;5.75;5.75;;;;;20.59;32.25;102137.97;5037144;28;45352;-73
2023/03/03 02:12:36;;;;;;;;;10.75;9.25;;;;;20.57;32.37;102143.44;5036983;28;45354;-74
2023/03/03 02:15:38;;;;;;;;;11.00;9.00;;;;;20.57;32.50;102140.78;5036932;28;45283;-74
2023/03/03 02:18:08;;;;;;;;;8.25;7.00;;;;;20.59;32.55;102145.91;5037255;28;45390;-73
2023/03/03 02:21:00;;;;;;;;;11.75;9.75;;;;;20.57;32.43;102142.59;5036503;28;47165;-73
2023/03/03 02:23:42;;;;;;;;;12.25;9.00;;;;;20.57;32.75;102145.22;5036964;28;45355;-74
2023/03/03 02:26:14;;;;;;;;;7.75;6.25;;;;;20.56;32.25;102146.19;5037105;28;45262;-73
2023/03/03 02:28:41;;;;;;;;;7.75;7.00;;;;;20.57;32.40;102148.72;5036795;28;45435;-73
2023/03/03 02:31:14;;;;;;;;;12.00;10.25;;;;;20.57;32.48;102146.06;5036610;28;45391;-74
2023/03/03 02:33:41;;;;;;;;;10.50;9.75;;;;;20.57;32.15;102151.34;5036743;28;45416;-74
2023/03/03 02:36:12;;;;;;;;;10.00;9.75;;;;;20.56;32.37;102147.03;5036245;28;45479;-74
2023/03/03 02:38:58;;;;;;;;;9.00;8.50;;;;;20.56;32.17;102154.13;5036714;28;45383;-74
2023/03/03 02:41:50;;;;;;;;;8.25;7.25;;;;;20.55;32.41;102152.47;5036603;28;46263;-73
2023/03/03 02:44:19;;;;;;;;;11.50;10.25;;;;;20.55;32.42;102147.19;5036001;28;45409;-74
2023/03/03 02:46:47;;;;;;;;;12.00;10.75;;;;;20.55;32.49;102140.09;5036714;28;45447;-73
2023/03/03 02:49:16;;;;;;;;;9.00;9.00;;;;;20.54;32.14;102140.22;5036333;28;45341;-74
2023/03/03 02:51:42;;;;;;;;;8.25;7.75;;;;;20.53;32.15;102139.41;5036368;28;47075;-73
2023/03/03 02:54:09;;;;;;;;;7.25;7.00;;;;;20.53;32.43;102143.84;5036500;28;45375;-74
2023/03/03 02:56:34;;;;;;;;;10.00;8.75;;;;;20.51;32.17;102141.31;5036020;28;45417;-73
2023/03/03 02:59:00;;;;;;;;;12.50;9.75;;;;;20.50;32.25;102137.03;5036412;28;45385;-73
2023/03/03 03:01:25;;;;;;;;;11.00;10.00;;;;;20.51;32.34;102134.22;5036172;28;46273;-73
2023/03/03 03:03:50;;;;;;;;;11.50;9.00;;;;;20.51;32.30;102134.22;5036000;28;45343;-73
2023/03/03 03:06:16;;;;;;;;;9.25;8.00;;;;;20.44;32.41;102121.69;5036493;28;45705;-74
2023/03/03 03:08:41;;;;;;;;;9.00;8.00;;;;;20.52;32.21;102124.50;5036286;28;45331;-73
2023/03/03 03:11:07;;;;;;;;;10.00;8.00;;;;;20.51;32.47;102120.16;5036165;28;46134;-74
2023/03/03 03:13:33;;;;;;;;;10.75;9.50;;;;;20.50;32.27;102121.16;5036118;28;45430;-73
2023/03/03 03:15:59;;;;;;;;;11.25;10.25;;;;;20.50;32.54;102115.88;5036122;28;45375;-73
2023/03/03 03:18:25;;;;;;;;;9.75;9.25;;;;;20.40;32.22;102100.00;5035774;28;45530;-73
2023/03/03 03:20:51;;;;;;;;;11.25;10.75;;;;;20.46;32.10;102104.72;5035776;28;46199;-74
2023/03/03 03:23:16;;;;;;;;;13.75;11.00;;;;;20.49;32.08;102111.53;5036064;28;45301;-73
2023/03/03 03:25:45;;;;;;;;;9.50;9.50;;;;;20.49;32.08;102108.91;5036191;28;45381;-74
2023/03/03 03:28:12;;;;;;;;;10.25;9.50;;;;;20.49;32.55;102111.53;5036078;28;45423;-74
2023/03/03 03:30:38;;;;;;;;;10.75;9.00;;;;;20.48;32.23;102110.72;5035652;28;47048;-74
2023/03/03 03:33:03;;;;;;;;;10.50;10.50;;;;;20.49;32.42;102112.38;5035312;28;45300;-73
2023/03/03 03:35:29;;;;;;;;;11.50;9.00;;;;;20.49;32.13;102119.47;5035752;28;45484;-73
2023/03/03 03:37:54;;;;;;;;;10.50;9.50;;;;;20.48;32.11;102113.34;5035965;28;45157;-73
2023/03/03 03:40:19;;;;;;;;;10.00;10.00;;;;;20.49;32.25;102117.69;5035715;28;45334;-74
2023/03/03 03:42:45;;;;;;;;;8.75;8.75;;;;;20.49;32.20;102109.75;5035772;28;45315;-73
2023/03/03 03:45:14;;;;;;;;;13.25;10.00;;;;;20.50;32.02;102121.16;5035937;28;45273;-74
2023/03/03 03:47:40;;;;;;;;;10.25;10.25;;;;;20.49;32.31;102117.69;5035371;28;45517;-74
2023/03/03 03:50:05;;;;;;;;;10.25;8.50;;;;;20.48;32.09;102110.72;5035551;28;46080;-74
2023/03/03 03:52:31;;;;;;;;;13.25;10.25;;;;;20.49;32.18;102114.19;5035387;28;45339;-73
2023/03/03 03:54:56;;;;;;;;;10.00;9.00;;;;;20.49;32.26;102120.31;5035527;28;45275;-74
2023/03/03 03:57:21;;;;;;;;;10.25;8.25;;;;;20.49;32.18;102117.69;5034769;28;45288;-73
2023/03/03 03:59:48;;;;;;;;;11.50;8.75;;;;;20.49;32.44;102127.41;5035367;28;47028;-73
2023/03/03 04:02:14;;;;;;;;;11.50;9.00;;;;;20.49;32.18;102122.13;5035233;28;45283;-73
2023/03/03 04:04:39;;;;;;;;;12.25;11.00;;;;;20.49;32.18;102127.41;5035421;28;45368;-73
2023/03/03 04:07:04;;;;;;;;;12.25;11.00;;;;;20.47;32.05;102121.44;5035577;28;45458;-73
2023/03/03 04:09:30;;;;;;;;;9.50;9.50;;;;;20.36;32.25;102117.94;5035317;28;47255;-74
2023/03/03 04:11:55;;;;;;;;;12.75;9.25;;;;;20.48;32.09;102136.34;5035384;28;45339;-73
2023/03/03 04:14:20;;;;;;;;;9.75;9.00;;;;;20.46;32.12;102135.63;5035288;28;45482;-73
2023/03/03 04:16:46;;;;;;;;;10.50;7.50;;;;;20.47;32.32;102137.28;5035061;28;45350;-74
2023/03/03 04:19:11;;;;;;;;;11.50;8.75;;;;;20.47;32.13;102138.13;5017322;28;48252;-73
2023/03/03 04:21:36;;;;;;;;;10.25;9.00;;;;;20.46;32.37;102140.91;5035275;28;46012;-73
2023/03/03 04:24:02;;;;;;;;;8.75;5.75;;;;;20.36;32.08;102131.16;5035427;28;45354;-73
2023/03/03 04:26:27;;;;;;;;;10.50;10.00;;;;;20.45;32.43;102142.72;5035370;28;45502;-74
2023/03/03 04:28:52;;;;;;;;;10.00;10.00;;;;;20.44;32.11;102141.03;5035089;28;45353;-74
2023/03/03 04:31:19;;;;;;;;;9.75;9.75;;;;;20.44;32.21;102141.03;5034716;28;45314;-73
2023/03/03 04:33:44;;;;;;;;;12.25;10.00;;;;;20.42;32.44;102147.44;5035158;28;45475;-74
2023/03/03 04:36:10;;;;;;;;;12.75;11.25;;;;;20.45;32.42;102155.09;5034920;28;45529;-73
2023/03/03 04:38:35;;;;;;;;;10.50;9.50;;;;;20.35;32.05;102134.75;5034974;28;45334;-73
2023/03/03 04:41:00;;;;;;;;;9.75;9.75;;;;;20.45;32.07;102153.31;5034893;28;45339;-73
2023/03/03 04:43:26;;;;;;;;;11.50;8.75;;;;;20.43;32.23;102152.59;5017408;28;45268;-73
2023/03/03 04:45:51;;;;;;;;;10.25;9.25;;;;;20.46;32.40;102156.75;5034715;28;45331;-73
2023/03/03 04:48:19;;;;;;;;;9.75;9.00;;;;;20.45;32.45;102160.41;5034924;28;46246;-73
2023/03/03 04:50:45;;;;;;;;;10.75;8.00;;;;;20.44;32.23;102169.28;5034913;28;45338;-73
2023/03/03 04:53:10;;;;;;;;;10.25;9.75;;;;;20.42;32.17;102169.44;5034772;28;45296;-73
2023/03/03 04:55:37;;;;;;;;;12.50;10.00;;;;;20.42;32.27;102168.59;5017323;28;45587;-73
2023/03/03 04:58:03;;;;;;;;;10.00;10.00;;;;;20.39;32.37;102162.63;5034764;28;47135;-73
2023/03/03 05:00:29;;;;;;;;;9.50;8.50;;;;;20.42;32.21;102165.94;5034481;28;45394;-73
2023/03/03 05:02:54;;;;;;;;;14.50;12.00;;;;;20.40;32.19;102164.28;5034821;28;45359;-73
2023/03/03 05:05:19;;;;;;;;;10.25;9.50;;;;;20.40;32.21;102168.75;5034672;28;45522;-73
2023/03/03 05:07:44;;;;;;;;;11.00;10.00;;;;;20.42;32.23;102165.94;5036063;28;47158;-74
2023/03/03 05:10:10;;;;;;;;;12.25;10.75;;;;;20.36;32.12;102156.75;5038189;28;45462;-73
2023/03/03 05:12:36;;;;;;;;;12.75;10.00;;;;;20.43;32.21;102167.63;5038286;28;45339;-73
2023/03/03 05:15:01;;;;;;;;;9.25;8.50;;;;;20.44;32.34;102175.41;5019809;28;45390;-73
2023/03/03 05:17:27;;;;;;;;;11.75;9.75;;;;;20.41;32.19;102175.69;5037944;28;46068;-73
2023/03/03 05:19:53;;;;;;;;;9.50;9.50;;;;;20.35;32.04;102170.97;5037952;28;45364;-74
2023/03/03 05:22:18;;;;;;;;;8.75;8.75;;;;;20.40;31.96;102179.31;5038167;28;45358;-73
2023/03/03 05:24:47;;;;;;;;;12.00;10.75;;;;;20.45;32.03;102184.19;5038104;28;45372;-73
2023/03/03 05:27:13;;;;;;;;;10.75;9.00;;;;;20.45;32.34;102186.84;5037692;28;46048;-73
2023/03/03 05:29:38;;;;;;;;;9.75;9.25;;;;;20.46;32.27;102185.84;5037458;28;45319;-73
2023/03/03 05:32:03;;;;;;;;;11.00;11.00;;;;;20.43;31.96;102186.94;5037866;28;45383;-73
2023/03/03 05:34:29;;;;;;;;;12.25;10.50;;;;;20.41;32.04;102183.63;5037810;28;45411;-73
2023/03/03 05:36:54;;;;;;;;;9.75;8.50;;;;;20.45;31.99;102189.47;5036935;28;45633;-74
2023/03/03 05:39:19;;;;;;;;;9.25;9.25;;;;;20.45;32.10;102198.25;5037564;28;45490;-73
2023/03/03 05:41:45;;;;;;;;;10.75;10.00;;;;;20.44;31.99;102199.22;5037621;28;45368;-73
2023/03/03 05:44:10;;;;;;;;;8.75;8.75;;;;;20.44;32.31;102187.78;5037359;28;45420;-73
2023/03/03 05:46:35;;;;;;;;;13.25;12.00;;;;;20.44;32.45;102199.22;5037457;28;45426;-73
2023/03/03 05:49:01;;;;;;;;;9.25;9.25;;;;;20.44;32.15;102196.56;5037325;28;45363;-73
2023/03/03 05:51:26;;;;;;;;;9.00;9.00;;;;;20.44;32.35;102190.44;5037605;28;45449;-73
2023/03/03 05:53:52;;;;;;;;;8.75;8.50;;;;;20.41;32.08;102188.91;5037401;28;45432;-73
2023/03/03 05:56:17;;;;;;;;;11.50;9.75;;;;;20.43;32.19;102186.94;5037281;28;46299;-74
2023/03/03 05:58:42;;;;;;;;;11.75;9.00;;;;;20.44;32.31;102195.72;5036883;28;45367;-73
2023/03/03 06:01:08;;;;;;;;;12.50;10.75;;;;;20.36;32.30;102180.53;5037387;28;45268;-73
2023/03/03 06:03:33;;;;;;;;;10.00;10.00;;;;;20.39;32.59;102194.34;5037467;28;45357;-73
2023/03/03 06:05:59;;;;;;;;;10.25;10.00;;;;;20.46;32.29;102207.00;5037244;28;45801;-73
2023/03/03 06:08:24;;;;;;;;;5.75;4.75;;;;;20.46;32.03;102207.00;5037199;28;45236;-74
2023/03/03 06:10:49;;;;;;;;;7.00;7.00;;;;;20.46;32.11;102209.63;5037380;28;45367;-73
2023/03/03 06:13:15;;;;;;;;;10.00;9.75;;;;;20.47;31.74;102206.03;5036836;28;45275;-73
2023/03/03 06:15:40;;;;;;;;;10.50;8.75;;;;;20.46;32.05;102202.53;5018947;28;46239;-74
2023/03/03 06:18:05;;;;;;;;;7.50;6.50;;;;;20.48;32.04;102215.66;5036765;28;45935;-73
2023/03/03 06:20:31;;;;;;;;;10.75;9.75;;;;;20.48;32.33;102219.09;5036323;28;45403;-73
2023/03/03 06:22:57;;;;;;;;;12.00;11.00;;;;;20.48;32.24;102227.03;5037229;28;45432;-73
2023/03/03 06:25:22;;;;;;;;;8.00;8.00;;;;;20.49;32.07;102223.44;5036821;28;45392;-73
2023/03/03 06:27:48;;;;;;;;;11.00;10.00;;;;;20.50;32.19;102221.63;5018582;28;45527;-74
2023/03/03 06:30:13;;;;;;;;;9.50;9.50;;;;;20.50;31.96;102218.97;5036946;28;45726;-76
2023/03/03 06:32:39;;;;;;;;;9.75;8.25;;;;;20.51;32.11;102220.63;5037371;28;45334;-76
2023/03/03 06:35:05;;;;;;;;;10.50;10.00;;;;;20.51;32.04;102216.19;5037134;28;46056;-76
2023/03/03 06:37:30;;;;;;;;;9.50;8.25;;;;;20.53;32.10;102224.00;5038513;28;45374;-75
2023/03/03 06:39:55;;;;;;;;;11.25;10.00;;;;;20.54;32.23;102230.94;5037570;28;45384;-75
2023/03/03 06:42:22;;;;;;;;;11.50;11.50;;;;;20.57;32.35;102233.31;5036585;28;45430;-74
2023/03/03 06:44:48;;;;;;;;;11.00;11.00;;;;;20.54;32.60;102227.47;5036655;28;46961;-75
2023/03/03 06:47:13;;;;;;;;;9.75;8.50;;;;;20.58;32.41;102232.34;5035542;28;45181;-75
2023/03/03 06:49:38;;;;;;;;;7.00;7.00;;;;;20.62;32.63;102235.56;5028056;28;45312;-75
2023/03/03 06:52:18;;;;;;;;;9.50;8.50;;;;;20.59;31.95;102241.13;5016685;28;45390;-76
2023/03/03 06:54:43;;;;;;;;;21.25;19.75;;;;;20.48;31.27;102240.25;5022985;28;45471;-75
2023/03/03 06:57:35;;;;;;;;;22.50;18.75;;;;;20.50;31.17;102245.44;5027979;28;45565;-75
2023/03/03 07:00:13;;;;;;;;;13.50;13.50;;;;;20.49;31.39;102249.03;5023184;28;45868;-75
2023/03/03 07:02:39;;;;;;;;;15.50;12.00;;;;;20.50;31.80;102256.00;5035817;28;45335;-75
2023/03/03 07:05:11;;;;;;;;;18.75;12.50;;;;;20.50;31.78;102256.84;5035869;28;46823;-75
2023/03/03 07:07:37;;;;;;;;;12.25;12.25;;;;;20.48;31.74;102253.47;5036381;28;45399;-75
2023/03/03 07:10:15;;;;;;;;;13.50;11.25;;;;;20.50;31.88;102262.13;5035888;28;45338;-75
2023/03/03 07:12:40;;;;;;;;;12.25;10.50;;;;;20.50;32.05;102264.78;5036400;28;45429;-75
2023/03/03 07:15:20;;;;;;;;;11.75;10.00;;;;;20.42;32.08;102261.97;5035776;28;45993;-75
2023/03/03 07:17:48;;;;;;;;;10.50;9.75;;;;;20.51;32.01;102278.81;5035987;28;45323;-74
2023/03/03 07:20:18;;;;;;;;;12.00;12.00;;;;;20.51;31.96;102278.81;5036328;28;45454;-76
2023/03/03 07:22:44;;;;;;;;;10.75;10.75;;;;;20.50;31.81;102275.34;5036008;28;45299;-75
2023/03/03 07:25:31;;;;;;;;;7.50;7.50;;;;;20.51;32.04;102284.94;5035601;28;46301;-75
2023/03/03 07:28:06;;;;;;;;;12.50;10.75;;;;;20.50;31.92;102277.16;5035928;28;45359;-75
2023/03/03 07:30:32;;;;;;;;;13.75;10.75;;;;;20.52;32.07;102288.44;5035737;28;45367;-75
2023/03/03 07:32:58;;;;;;;;;9.25;8.25;;;;;20.54;31.66;102290.91;5035828;28;45465;-76
2023/03/03 07:35:43;;;;;;;;;10.25;9.75;;;;;20.54;31.76;102288.28;5035697;28;46114;-75
2023/03/03 07:38:29;;;;;;;;;9.00;9.00;;;;;20.55;32.24;102290.81;5034658;28;45374;-75
2023/03/03 07:40:57;;;;;;;;;10.50;10.00;;;;;20.55;31.82;102290.81;5035959;28;45378;-75
2023/03/03 07:43:35;;;;;;;;;12.50;12.50;;;;;20.54;32.25;102275.06;5035781;28;45521;-76
2023/03/03 07:46:10;;;;;;;;;5.50;5.50;;;;;20.56;31.97;102275.75;5035526;28;47199;-75
2023/03/03 07:48:39;;;;;;;;;12.00;11.75;;;;;20.30;32.20;102240.06;5035554;28;45546;-75
2023/03/03 07:51:17;;;;;;;;;11.00;9.75;;;;;20.57;31.82;102278.28;5035698;28;45441;-75
2023/03/03 07:53:43;;;;;;;;;10.25;10.25;;;;;20.57;32.04;102294.16;5035101;28;45393;-75
2023/03/03 07:56:25;;;;;;;;;8.75;8.75;;;;;20.61;31.84;102292.88;5035736;28;45451;-76
2023/03/03 07:58:51;;;;;;;;;12.75;10.00;;;;;20.63;31.93;102296.22;5035545;28;45359;-76
2023/03/03 08:01:39;;;;;;;;;8.25;8.25;;;;;20.65;31.87;102293.47;5035526;28;45440;-75
2023/03/03 08:04:46;;;;;;;;;11.00;9.75;;;;;20.68;31.73;102301.13;5035664;28;45294;-75
2023/03/03 08:07:16;;;;;;;;;12.00;9.75;;;;;20.71;31.77;102310.63;5034959;28;46225;-76
2023/03/03 08:09:57;;;;;;;;;9.25;8.75;;;;;20.73;32.01;102312.16;5031760;28;45458;-76
2023/03/03 08:12:40;;;;;;;;;9.50;9.25;;;;;20.78;32.10;102309.09;5028111;28;45304;-75
2023/03/03 08:15:20;;;;;;;;;9.00;8.75;;;;;20.83;31.91;102314.81;5034958;28;45422;-75
2023/03/03 08:17:46;;;;;;;;;9.25;8.25;;;;;20.86;31.47;102321.63;5034164;28;47152;-75
2023/03/03 08:20:41;;;;;;;;;8.75;8.25;;;;;20.89;31.68;102325.81;5034937;28;45339;-75
2023/03/03 08:23:06;;;;;;;;;10.75;7.50;;;;;20.92;31.96;102325.56;5034476;28;45342;-75
2023/03/03 08:25:31;;;;;;;;;8.50;8.50;;;;;20.95;31.89;102322.63;5035394;28;45354;-75
2023/03/03 08:27:57;;;;;;;;;8.50;8.25;;;;;20.99;31.50;102331.97;5034611;28;46021;-76
2023/03/03 08:30:22;;;;;;;;;10.00;7.25;;;;;21.04;31.44;102326.28;5034654;28;45403;-75
2023/03/03 08:32:47;;;;;;;;;10.75;10.00;;;;;21.01;31.34;102322.09;5034891;28;45338;-75
2023/03/03 08:35:13;;;;;;;;;9.75;9.75;;;;;21.11;31.41;102334.50;5034572;28;45339;-73
2023/03/03 08:37:38;;;;;;;;;13.00;10.00;;;;;21.13;31.27;102322.81;5034507;28;46074;-75
2023/03/03 08:40:04;;;;;;;;;11.00;9.50;;;;;21.16;31.09;102338.41;5034843;28;45306;-75
2023/03/03 08:42:30;;;;;;;;;11.50;9.00;;;;;21.19;30.93;102337.31;5036045;28;45309;-75
2023/03/03 08:44:55;;;;;;;;;11.25;10.00;;;;;21.21;30.99;102334.53;5038591;28;45296;-75
2023/03/03 08:47:20;;;;;;;;;14.50;10.50;;;;;21.22;30.89;102342.34;5038246;28;45324;-75
2023/03/03 08:49:47;;;;;;;;;8.75;8.00;;;;;21.25;31.03;102343.88;5038244;28;45534;-75
2023/03/03 08:52:12;;;;;;;;;10.50;9.75;;;;;21.25;30.97;102344.72;5038154;28;45366;-75
2023/03/03 08:54:38;;;;;;;;;13.25;10.50;;;;;21.25;30.85;102344.72;5038255;28;45307;-75
2023/03/03 08:57:03;;;;;;;;;11.50;9.25;;;;;21.27;30.99;102345.41;5038172;28;45995;-75
2023/03/03 08:59:28;;;;;;;;;11.25;10.00;;;;;21.26;30.88;102341.06;5038297;28;45391;-75
2023/03/03 09:01:54;;;;;;;;;9.00;8.00;;;;;21.27;31.16;102345.41;5038202;28;45311;-75
2023/03/03 09:04:19;;;;;;;;;9.75;9.50;;;;;21.26;31.24;102351.66;5038099;28;45418;-75
2023/03/03 09:06:44;;;;;;;;;7.25;7.25;;;;;21.27;31.09;102349.84;5037643;28;46241;-75
2023/03/03 09:09:10;;;;;;;;;10.00;8.25;;;;;21.26;31.28;102343.72;5037457;28;45342;-75
2023/03/03 09:11:35;;;;;;;;;10.25;8.75;;;;;21.27;31.16;102347.19;5037967;28;45427;-75
2023/03/03 09:14:19;;;;;;;;;9.75;7.50;;;;;21.22;31.01;102336.19;5037859;28;45440;-75
2023/03/03 09:16:50;;;;;;;;;9.50;7.00;;;;;21.23;31.01;102333.44;5017683;28;46306;-75
2023/03/03 09:19:20;;;;;;;;;10.50;6.75;;;;;21.25;30.92;102341.22;5017490;28;45402;-75
2023/03/03 09:21:46;;;;;;;;;9.75;8.00;;;;;21.23;31.01;102338.72;5017615;28;45358;-75
2023/03/03 09:24:26;;;;;;;;;9.75;8.00;;;;;21.22;31.01;102342.34;5017801;28;45543;-75
2023/03/03 09:26:52;;;;;;;;;10.00;10.00;;;;;21.22;30.98;102341.50;5018064;28;45367;-75
2023/03/03 09:29:25;;;;;;;;;9.50;8.00;;;;;21.22;31.49;102357.38;5037550;28;45429;-77
2023/03/03 09:32:00;;;;;;;;;8.50;7.00;;;;;21.17;31.06;102353.34;5037438;28;45339;-75
2023/03/03 09:34:38;;;;;;;;;9.50;8.25;;;;;21.20;31.15;102346.09;5037292;28;45249;-75
2023/03/03 09:37:31;;;;;;;;;10.50;8.00;;;;;21.18;31.49;102336.47;5037170;28;46583;-75
2023/03/03 09:39:57;;;;;;;;;8.25;7.75;;;;;21.18;31.24;102351.53;5037400;28;45555;-74
2023/03/03 09:42:41;;;;;;;;;13.75;11.00;;;;;21.19;31.09;102355.84;5037351;28;45368;-75
2023/03/03 09:45:28;;;;;;;;;8.25;8.00;;;;;21.18;31.33;102348.88;5037407;28;45372;-75
2023/03/03 09:48:29;;;;;;;;;12.50;9.00;;;;;21.19;31.14;102358.47;5036996;28;47356;-75
2023/03/03 09:51:16;;;;;;;;;9.50;5.25;;;;;21.20;31.10;102365.47;5019664;28;45422;-75
2023/03/03 09:53:47;;;;;;;;;8.00;7.00;;;;;21.20;31.44;102360.16;5035614;28;45395;-75
2023/03/03 09:56:18;;;;;;;;;10.25;7.25;;;;;21.21;30.84;102359.16;5037285;28;45467;-76
2023/03/03 09:59:01;;;;;;;;;5.00;5.00;;;;;21.21;31.55;102355.72;5037205;28;45358;-75
2023/03/03 10:01:36;;;;;;;;;9.50;8.00;;;;;21.22;31.06;102365.31;5036834;28;45382;-75
2023/03/03 10:04:10;;;;;;;;;8.00;7.00;;;;;21.23;31.45;102367.84;5018803;28;45450;-76
2023/03/03 10:06:54;;;;;;;;;7.50;6.75;;;;;21.23;31.42;102369.66;5036232;28;45354;-75
2023/03/03 10:09:50;;;;;;;;;9.50;6.00;;;;;21.24;31.34;102371.28;5036613;28;45473;-75
2023/03/03 10:12:30;;;;;;;;;8.50;5.50;;;;;21.22;31.04;102363.50;5037053;28;45324;-75
2023/03/03 10:15:09;;;;;;;;;7.25;7.00;;;;;21.22;31.52;102365.31;5036860;28;45514;-75
2023/03/03 10:17:52;;;;;;;;;9.00;7.25;;;;;21.24;30.89;102377.44;5036760;28;45232;-75
2023/03/03 10:20:20;;;;;;;;;5.50;5.50;;;;;21.24;31.23;102373.94;5036798;28;47096;-75
2023/03/03 10:23:09;;;;;;;;;6.00;6.00;;;;;21.23;31.18;102378.44;5036452;28;45185;-75
2023/03/03 10:25:42;;;;;;;;;7.75;6.00;;;;;21.24;31.46;102384.53;5036815;28;45462;-75
2023/03/03 10:28:31;;;;;;;;;8.75;6.00;;;;;21.25;31.22;102370.34;5036822;28;45307;-75
2023/03/03 10:31:35;;;;;;;;;6.00;6.00;;;;;21.25;31.52;102378.28;5036250;28;46132;-74
2023/03/03 10:34:01;;;;;;;;;8.75;6.00;;;;;21.25;31.30;102373.81;5018320;28;45487;-75
2023/03/03 10:36:44;;;;;;;;;6.00;5.25;;;;;21.25;31.40;102367.69;5035994;28;45347;-75
2023/03/03 10:39:53;;;;;;;;;7.00;5.75;;;;;21.25;31.33;102380.91;5036043;28;45351;-75
2023/03/03 10:42:37;;;;;;;;;7.50;7.50;;;;;21.23;31.70;102373.13;5036247;28;46175;-75
2023/03/03 10:45:39;;;;;;;;;6.50;4.75;;;;;21.24;31.21;102368.66;5036299;28;45261;-76
2023/03/03 10:48:08;;;;;;;;;7.00;5.75;;;;;21.24;31.28;102380.09;5036063;28;45535;-75
2023/03/03 10:51:14;;;;;;;;;4.00;4.00;;;;;21.24;31.42;102380.09;5036645;28;45323;-75
2023/03/03 10:53:43;;;;;;;;;5.00;5.00;;;;;21.24;31.36;102368.66;5034590;28;46470;-76
2023/03/03 10:56:22;;;;;;;;;7.00;6.00;;;;;21.24;31.52;102384.53;5034995;28;45457;-75
2023/03/03 10:58:56;;;;;;;;;6.00;6.00;;;;;21.22;31.22;102378.53;5036160;28;45334;-75
2023/03/03 11:01:49;;;;;;;;;6.25;4.75;;;;;21.22;31.42;102378.53;5036046;28;45478;-75
2023/03/03 11:04:27;;;;;;;;;8.25;7.00;;;;;21.21;31.58;102393.59;5035292;28;45433;-74
2023/03/03 11:07:18;;;;;;;;;4.50;4.50;;;;;21.21;31.29;102376.88;5035829;28;45390;-75
2023/03/03 11:09:43;;;;;;;;;7.75;6.00;;;;;21.20;31.59;102375.19;5036052;28;45295;-75
2023/03/03 11:12:11;;;;;;;;;7.25;6.50;;;;;21.19;31.54;102369.06;5035373;28;45557;-74
2023/03/03 11:14:47;;;;;;;;;5.50;5.50;;;;;21.15;31.39;102359.75;5034572;28;46203;-75
2023/03/03 11:17:29;;;;;;;;;5.75;5.75;;;;;21.18;31.34;102373.53;5034920;28;45402;-75
2023/03/03 11:20:09;;;;;;;;;5.75;5.75;;;;;21.17;31.26;102371.03;5035689;28;45381;-75
2023/03/03 11:22:43;;;;;;;;;5.75;5.25;;;;;21.16;31.29;102370.19;5035607;28;45350;-74
2023/03/03 11:25:23;;;;;;;;;5.00;3.00;;;;;21.16;31.33;102356.09;5035575;28;46452;-75
2023/03/03 11:28:16;;;;;;;;;5.00;5.00;;;;;21.15;31.27;102365.88;5035489;28;45549;-75
2023/03/03 11:30:41;;;;;;;;;5.25;4.00;;;;;21.15;31.11;102367.69;5035310;28;45524;-75
2023/03/03 11:33:17;;;;;;;;;3.25;3.00;;;;;21.14;31.53;102364.19;5035650;28;45333;-75
2023/03/03 11:36:22;;;;;;;;;5.00;4.00;;;;;21.15;31.41;102365.03;5035528;28;46210;-75